sensor_id;sensor_type;location;lat;lon;timestamp;temperature;humidity
74336;DHT22;62755;-33.398;-70.572;2022-12-18T00:02:23;23.50;39.20
74336;DHT22;62755;-33.398;-70.572;2022-12-18T00:04:53;23.50;39.30
74336;DHT22;62755;-33.398;-70.572;2022-12-18T00:07:23;23.40;39.50
74336;DHT22;62755;-33.398;-70.572;2022-12-18T00:09:53;23.40;39.80
74336;DHT22;62755;-33.398;-70.572;2022-12-18T00:12:22;23.30;40.00
74336;DHT22;62755;-33.398;-70.572;2022-12-18T00:14:54;23.10;40.40
74336;DHT22;62755;-33.398;-70.572;2022-12-18T00:17:23;23.00;40.60
74336;DHT22;62755;-33.398;-70.572;2022-12-18T00:19:53;22.90;40.80
74336;DHT22;62755;-33.398;-70.572;2022-12-18T00:22:22;22.90;40.80
74336;DHT22;62755;-33.398;-70.572;2022-12-18T00:24:52;22.90;40.90
74336;DHT22;62755;-33.398;-70.572;2022-12-18T00:27:21;23.00;40.80
74336;DHT22;62755;-33.398;-70.572;2022-12-18T00:29:52;22.90;41.00
74336;DHT22;62755;-33.398;-70.572;2022-12-18T00:32:22;22.90;41.10
74336;DHT22;62755;-33.398;-70.572;2022-12-18T00:34:52;22.80;41.40
74336;DHT22;62755;-33.398;-70.572;2022-12-18T00:37:22;22.70;41.50
74336;DHT22;62755;-33.398;-70.572;2022-12-18T00:39:53;22.70;41.60
74336;DHT22;62755;-33.398;-70.572;2022-12-18T00:42:25;22.60;41.70
74336;DHT22;62755;-33.398;-70.572;2022-12-18T00:45:12;22.60;41.70
74336;DHT22;62755;-33.398;-70.572;2022-12-18T00:47:42;22.50;42.10
74336;DHT22;62755;-33.398;-70.572;2022-12-18T00:50:12;22.50;42.00
74336;DHT22;62755;-33.398;-70.572;2022-12-18T00:52:41;22.50;42.10
74336;DHT22;62755;-33.398;-70.572;2022-12-18T00:55:11;22.50;42.10
74336;DHT22;62755;-33.398;-70.572;2022-12-18T00:57:42;22.50;42.20
74336;DHT22;62755;-33.398;-70.572;2022-12-18T01:00:14;22.70;42.10
74336;DHT22;62755;-33.398;-70.572;2022-12-18T01:02:44;22.60;42.10
74336;DHT22;62755;-33.398;-70.572;2022-12-18T01:05:14;22.60;42.10
74336;DHT22;62755;-33.398;-70.572;2022-12-18T01:07:44;22.60;42.10
74336;DHT22;62755;-33.398;-70.572;2022-12-18T01:10:14;22.60;42.10
74336;DHT22;62755;-33.398;-70.572;2022-12-18T01:12:43;22.60;42.20
74336;DHT22;62755;-33.398;-70.572;2022-12-18T01:15:15;22.50;42.20
74336;DHT22;62755;-33.398;-70.572;2022-12-18T01:17:45;22.50;42.50
74336;DHT22;62755;-33.398;-70.572;2022-12-18T01:20:15;22.50;42.30
74336;DHT22;62755;-33.398;-70.572;2022-12-18T01:22:47;22.40;42.50
74336;DHT22;62755;-33.398;-70.572;2022-12-18T01:25:17;22.30;42.60
74336;DHT22;62755;-33.398;-70.572;2022-12-18T01:27:46;22.30;42.60
74336;DHT22;62755;-33.398;-70.572;2022-12-18T01:30:17;22.40;42.60
74336;DHT22;62755;-33.398;-70.572;2022-12-18T01:32:47;22.40;42.70
74336;DHT22;62755;-33.398;-70.572;2022-12-18T01:35:17;22.50;42.50
74336;DHT22;62755;-33.398;-70.572;2022-12-18T01:37:46;22.50;42.50
74336;DHT22;62755;-33.398;-70.572;2022-12-18T01:40:16;22.30;42.60
74336;DHT22;62755;-33.398;-70.572;2022-12-18T01:42:50;22.30;42.70
74336;DHT22;62755;-33.398;-70.572;2022-12-18T01:45:26;22.30;42.70
74336;DHT22;62755;-33.398;-70.572;2022-12-18T01:47:57;22.20;43.00
74336;DHT22;62755;-33.398;-70.572;2022-12-18T01:50:32;22.10;43.00
74336;DHT22;62755;-33.398;-70.572;2022-12-18T01:53:06;22.10;43.20
74336;DHT22;62755;-33.398;-70.572;2022-12-18T01:55:40;21.90;43.20
74336;DHT22;62755;-33.398;-70.572;2022-12-18T01:58:12;21.90;43.50
74336;DHT22;62755;-33.398;-70.572;2022-12-18T02:00:43;22.00;43.30
74336;DHT22;62755;-33.398;-70.572;2022-12-18T02:03:13;22.10;43.30
74336;DHT22;62755;-33.398;-70.572;2022-12-18T02:05:47;22.10;43.20
74336;DHT22;62755;-33.398;-70.572;2022-12-18T02:08:22;22.10;43.00
74336;DHT22;62755;-33.398;-70.572;2022-12-18T02:11:00;22.10;43.10
74336;DHT22;62755;-33.398;-70.572;2022-12-18T02:13:40;22.20;43.00
74336;DHT22;62755;-33.398;-70.572;2022-12-18T02:16:18;22.20;42.90
74336;DHT22;62755;-33.398;-70.572;2022-12-18T02:18:50;22.30;43.00
74336;DHT22;62755;-33.398;-70.572;2022-12-18T02:21:40;22.10;42.80
74336;DHT22;62755;-33.398;-70.572;2022-12-18T02:24:27;22.00;43.10
74336;DHT22;62755;-33.398;-70.572;2022-12-18T02:27:01;22.00;43.00
74336;DHT22;62755;-33.398;-70.572;2022-12-18T02:29:37;22.00;42.90
74336;DHT22;62755;-33.398;-70.572;2022-12-18T02:32:13;21.90;43.00
74336;DHT22;62755;-33.398;-70.572;2022-12-18T02:34:43;21.90;43.10
74336;DHT22;62755;-33.398;-70.572;2022-12-18T02:37:15;21.70;43.40
74336;DHT22;62755;-33.398;-70.572;2022-12-18T02:39:47;21.70;43.30
74336;DHT22;62755;-33.398;-70.572;2022-12-18T02:42:20;21.80;43.20
74336;DHT22;62755;-33.398;-70.572;2022-12-18T02:44:50;21.80;43.30
74336;DHT22;62755;-33.398;-70.572;2022-12-18T02:47:23;21.70;43.40
74336;DHT22;62755;-33.398;-70.572;2022-12-18T02:49:59;21.50;43.60
74336;DHT22;62755;-33.398;-70.572;2022-12-18T02:52:35;21.50;44.00
74336;DHT22;62755;-33.398;-70.572;2022-12-18T02:55:22;21.50;44.10
74336;DHT22;62755;-33.398;-70.572;2022-12-18T02:57:58;21.50;44.10
74336;DHT22;62755;-33.398;-70.572;2022-12-18T03:00:35;21.50;43.80
74336;DHT22;62755;-33.398;-70.572;2022-12-18T03:03:11;21.60;43.90
74336;DHT22;62755;-33.398;-70.572;2022-12-18T03:05:47;21.70;43.90
74336;DHT22;62755;-33.398;-70.572;2022-12-18T03:08:19;21.70;43.70
74336;DHT22;62755;-33.398;-70.572;2022-12-18T03:10:53;21.70;43.80
74336;DHT22;62755;-33.398;-70.572;2022-12-18T03:13:30;21.70;43.90
74336;DHT22;62755;-33.398;-70.572;2022-12-18T03:16:03;21.70;43.80
74336;DHT22;62755;-33.398;-70.572;2022-12-18T03:18:37;21.50;43.90
74336;DHT22;62755;-33.398;-70.572;2022-12-18T03:21:09;21.40;44.30
74336;DHT22;62755;-33.398;-70.572;2022-12-18T03:23:42;21.20;44.70
74336;DHT22;62755;-33.398;-70.572;2022-12-18T03:26:16;21.10;44.90
74336;DHT22;62755;-33.398;-70.572;2022-12-18T03:28:51;21.10;45.10
74336;DHT22;62755;-33.398;-70.572;2022-12-18T03:31:23;21.20;45.20
74336;DHT22;62755;-33.398;-70.572;2022-12-18T03:33:57;21.40;44.80
74336;DHT22;62755;-33.398;-70.572;2022-12-18T03:36:30;21.50;44.50
74336;DHT22;62755;-33.398;-70.572;2022-12-18T03:39:00;21.50;44.30
74336;DHT22;62755;-33.398;-70.572;2022-12-18T03:41:32;21.70;44.20
74336;DHT22;62755;-33.398;-70.572;2022-12-18T03:44:10;21.70;44.10
74336;DHT22;62755;-33.398;-70.572;2022-12-18T03:46:45;21.70;44.40
74336;DHT22;62755;-33.398;-70.572;2022-12-18T03:49:23;21.50;44.30
74336;DHT22;62755;-33.398;-70.572;2022-12-18T03:51:59;21.50;44.90
74336;DHT22;62755;-33.398;-70.572;2022-12-18T03:54:31;21.50;44.70
74336;DHT22;62755;-33.398;-70.572;2022-12-18T03:57:06;21.50;44.60
74336;DHT22;62755;-33.398;-70.572;2022-12-18T03:59:38;21.50;44.70
74336;DHT22;62755;-33.398;-70.572;2022-12-18T04:02:09;21.50;44.80
74336;DHT22;62755;-33.398;-70.572;2022-12-18T04:04:40;21.40;44.60
74336;DHT22;62755;-33.398;-70.572;2022-12-18T04:07:11;21.30;44.70
74336;DHT22;62755;-33.398;-70.572;2022-12-18T04:09:42;21.30;44.90
74336;DHT22;62755;-33.398;-70.572;2022-12-18T04:12:12;21.30;44.90
74336;DHT22;62755;-33.398;-70.572;2022-12-18T04:14:44;21.30;45.00
74336;DHT22;62755;-33.398;-70.572;2022-12-18T04:17:13;21.20;45.20
74336;DHT22;62755;-33.398;-70.572;2022-12-18T04:19:43;21.00;45.30
74336;DHT22;62755;-33.398;-70.572;2022-12-18T04:22:13;21.00;45.60
74336;DHT22;62755;-33.398;-70.572;2022-12-18T04:24:42;21.10;45.50
74336;DHT22;62755;-33.398;-70.572;2022-12-18T04:27:12;21.10;45.40
74336;DHT22;62755;-33.398;-70.572;2022-12-18T04:29:43;21.10;45.30
74336;DHT22;62755;-33.398;-70.572;2022-12-18T04:32:13;21.20;45.20
74336;DHT22;62755;-33.398;-70.572;2022-12-18T04:34:42;21.30;45.10
74336;DHT22;62755;-33.398;-70.572;2022-12-18T04:37:12;21.40;44.90
74336;DHT22;62755;-33.398;-70.572;2022-12-18T04:39:41;21.40;44.80
74336;DHT22;62755;-33.398;-70.572;2022-12-18T04:42:11;21.40;44.90
74336;DHT22;62755;-33.398;-70.572;2022-12-18T04:44:40;21.20;45.40
74336;DHT22;62755;-33.398;-70.572;2022-12-18T04:47:12;20.80;45.50
74336;DHT22;62755;-33.398;-70.572;2022-12-18T04:49:41;20.70;45.70
74336;DHT22;62755;-33.398;-70.572;2022-12-18T04:52:11;20.70;45.60
74336;DHT22;62755;-33.398;-70.572;2022-12-18T04:54:41;20.80;45.50
74336;DHT22;62755;-33.398;-70.572;2022-12-18T04:57:10;20.90;45.40
74336;DHT22;62755;-33.398;-70.572;2022-12-18T04:59:40;20.90;45.30
74336;DHT22;62755;-33.398;-70.572;2022-12-18T05:02:11;21.00;45.10
74336;DHT22;62755;-33.398;-70.572;2022-12-18T05:04:41;21.00;45.20
74336;DHT22;62755;-33.398;-70.572;2022-12-18T05:07:11;21.00;45.10
74336;DHT22;62755;-33.398;-70.572;2022-12-18T05:09:40;21.00;45.20
74336;DHT22;62755;-33.398;-70.572;2022-12-18T05:12:10;21.00;45.20
74336;DHT22;62755;-33.398;-70.572;2022-12-18T05:14:40;21.00;45.40
74336;DHT22;62755;-33.398;-70.572;2022-12-18T05:17:11;21.10;45.40
74336;DHT22;62755;-33.398;-70.572;2022-12-18T05:19:40;21.10;45.40
74336;DHT22;62755;-33.398;-70.572;2022-12-18T05:22:10;21.20;45.40
74336;DHT22;62755;-33.398;-70.572;2022-12-18T05:24:41;21.30;45.20
74336;DHT22;62755;-33.398;-70.572;2022-12-18T05:27:10;21.30;45.20
74336;DHT22;62755;-33.398;-70.572;2022-12-18T05:29:40;21.30;45.10
74336;DHT22;62755;-33.398;-70.572;2022-12-18T05:32:12;21.30;45.00
74336;DHT22;62755;-33.398;-70.572;2022-12-18T05:34:42;21.10;45.20
74336;DHT22;62755;-33.398;-70.572;2022-12-18T05:37:11;21.10;45.20
74336;DHT22;62755;-33.398;-70.572;2022-12-18T05:39:42;21.00;45.30
74336;DHT22;62755;-33.398;-70.572;2022-12-18T05:42:12;20.90;45.40
74336;DHT22;62755;-33.398;-70.572;2022-12-18T05:44:41;20.80;45.60
74336;DHT22;62755;-33.398;-70.572;2022-12-18T05:47:14;20.70;45.70
74336;DHT22;62755;-33.398;-70.572;2022-12-18T05:49:43;20.60;46.00
74336;DHT22;62755;-33.398;-70.572;2022-12-18T05:52:14;20.50;46.20
74336;DHT22;62755;-33.398;-70.572;2022-12-18T05:54:43;20.50;46.30
74336;DHT22;62755;-33.398;-70.572;2022-12-18T05:57:13;20.50;46.30
74336;DHT22;62755;-33.398;-70.572;2022-12-18T05:59:42;20.50;46.40
74336;DHT22;62755;-33.398;-70.572;2022-12-18T06:02:14;20.50;46.40
74336;DHT22;62755;-33.398;-70.572;2022-12-18T06:04:44;20.50;46.40
74336;DHT22;62755;-33.398;-70.572;2022-12-18T06:07:13;20.50;46.40
74336;DHT22;62755;-33.398;-70.572;2022-12-18T06:09:43;20.30;46.50
74336;DHT22;62755;-33.398;-70.572;2022-12-18T06:12:14;20.30;46.50
74336;DHT22;62755;-33.398;-70.572;2022-12-18T06:14:44;20.30;46.60
74336;DHT22;62755;-33.398;-70.572;2022-12-18T06:17:15;20.30;46.70
74336;DHT22;62755;-33.398;-70.572;2022-12-18T06:19:45;20.30;46.80
74336;DHT22;62755;-33.398;-70.572;2022-12-18T06:22:15;20.30;46.80
74336;DHT22;62755;-33.398;-70.572;2022-12-18T06:24:44;20.30;46.80
74336;DHT22;62755;-33.398;-70.572;2022-12-18T06:27:14;20.30;46.70
74336;DHT22;62755;-33.398;-70.572;2022-12-18T06:29:45;20.30;46.70
74336;DHT22;62755;-33.398;-70.572;2022-12-18T06:32:17;20.30;46.60
74336;DHT22;62755;-33.398;-70.572;2022-12-18T06:34:47;20.30;46.80
74336;DHT22;62755;-33.398;-70.572;2022-12-18T06:37:16;20.30;46.80
74336;DHT22;62755;-33.398;-70.572;2022-12-18T06:39:46;20.40;46.60
74336;DHT22;62755;-33.398;-70.572;2022-12-18T06:42:16;20.40;46.60
74336;DHT22;62755;-33.398;-70.572;2022-12-18T06:44:45;20.40;46.70
74336;DHT22;62755;-33.398;-70.572;2022-12-18T06:47:17;20.50;46.60
74336;DHT22;62755;-33.398;-70.572;2022-12-18T06:49:46;20.50;46.70
74336;DHT22;62755;-33.398;-70.572;2022-12-18T06:52:16;20.50;46.50
74336;DHT22;62755;-33.398;-70.572;2022-12-18T06:54:45;20.50;46.60
74336;DHT22;62755;-33.398;-70.572;2022-12-18T06:57:15;20.50;46.70
74336;DHT22;62755;-33.398;-70.572;2022-12-18T06:59:45;20.50;46.60
74336;DHT22;62755;-33.398;-70.572;2022-12-18T07:02:16;20.50;46.60
74336;DHT22;62755;-33.398;-70.572;2022-12-18T07:04:46;20.50;46.80
74336;DHT22;62755;-33.398;-70.572;2022-12-18T07:07:16;20.50;46.60
74336;DHT22;62755;-33.398;-70.572;2022-12-18T07:09:45;20.50;46.60
74336;DHT22;62755;-33.398;-70.572;2022-12-18T07:12:16;20.50;46.60
74336;DHT22;62755;-33.398;-70.572;2022-12-18T07:14:46;20.60;46.50
74336;DHT22;62755;-33.398;-70.572;2022-12-18T07:17:17;20.60;46.50
74336;DHT22;62755;-33.398;-70.572;2022-12-18T07:19:47;20.60;46.50
74336;DHT22;62755;-33.398;-70.572;2022-12-18T07:22:16;20.60;46.40
74336;DHT22;62755;-33.398;-70.572;2022-12-18T07:24:47;20.60;46.40
74336;DHT22;62755;-33.398;-70.572;2022-12-18T07:27:18;20.60;46.40
74336;DHT22;62755;-33.398;-70.572;2022-12-18T07:29:48;20.60;46.50
74336;DHT22;62755;-33.398;-70.572;2022-12-18T07:32:19;20.60;46.50
74336;DHT22;62755;-33.398;-70.572;2022-12-18T07:34:49;20.60;46.50
74336;DHT22;62755;-33.398;-70.572;2022-12-18T07:37:19;20.70;46.30
74336;DHT22;62755;-33.398;-70.572;2022-12-18T07:39:48;20.60;46.20
74336;DHT22;62755;-33.398;-70.572;2022-12-18T07:42:19;20.60;46.20
74336;DHT22;62755;-33.398;-70.572;2022-12-18T07:45:02;20.60;46.30
74336;DHT22;62755;-33.398;-70.572;2022-12-18T07:47:35;20.60;46.40
74336;DHT22;62755;-33.398;-70.572;2022-12-18T07:50:05;20.60;46.40
74336;DHT22;62755;-33.398;-70.572;2022-12-18T07:52:35;20.60;46.50
74336;DHT22;62755;-33.398;-70.572;2022-12-18T07:55:05;20.50;46.40
74336;DHT22;62755;-33.398;-70.572;2022-12-18T07:57:35;20.30;46.80
74336;DHT22;62755;-33.398;-70.572;2022-12-18T08:00:05;19.90;47.50
74336;DHT22;62755;-33.398;-70.572;2022-12-18T08:02:37;19.60;48.00
74336;DHT22;62755;-33.398;-70.572;2022-12-18T08:05:07;19.30;48.90
74336;DHT22;62755;-33.398;-70.572;2022-12-18T08:07:36;19.20;49.10
74336;DHT22;62755;-33.398;-70.572;2022-12-18T08:10:07;19.10;49.40
74336;DHT22;62755;-33.398;-70.572;2022-12-18T08:12:37;19.00;49.50
74336;DHT22;62755;-33.398;-70.572;2022-12-18T08:15:07;19.10;49.40
74336;DHT22;62755;-33.398;-70.572;2022-12-18T08:17:39;19.00;49.70
74336;DHT22;62755;-33.398;-70.572;2022-12-18T08:20:09;18.90;50.00
74336;DHT22;62755;-33.398;-70.572;2022-12-18T08:22:41;18.90;49.80
74336;DHT22;62755;-33.398;-70.572;2022-12-18T08:25:11;19.00;49.60
74336;DHT22;62755;-33.398;-70.572;2022-12-18T08:27:40;19.10;49.40
74336;DHT22;62755;-33.398;-70.572;2022-12-18T08:30:11;19.20;49.20
74336;DHT22;62755;-33.398;-70.572;2022-12-18T08:32:42;19.40;49.10
74336;DHT22;62755;-33.398;-70.572;2022-12-18T08:35:12;19.50;48.80
74336;DHT22;62755;-33.398;-70.572;2022-12-18T08:37:41;19.50;48.70
74336;DHT22;62755;-33.398;-70.572;2022-12-18T08:40:12;19.60;48.60
74336;DHT22;62755;-33.398;-70.572;2022-12-18T08:42:41;19.60;48.50
74336;DHT22;62755;-33.398;-70.572;2022-12-18T08:45:27;19.50;48.40
74336;DHT22;62755;-33.398;-70.572;2022-12-18T08:47:58;19.50;48.50
74336;DHT22;62755;-33.398;-70.572;2022-12-18T08:50:28;19.70;48.50
74336;DHT22;62755;-33.398;-70.572;2022-12-18T08:52:58;19.70;48.30
74336;DHT22;62755;-33.398;-70.572;2022-12-18T08:55:27;19.70;48.20
74336;DHT22;62755;-33.398;-70.572;2022-12-18T08:57:57;19.80;48.20
74336;DHT22;62755;-33.398;-70.572;2022-12-18T09:00:27;19.90;48.00
74336;DHT22;62755;-33.398;-70.572;2022-12-18T09:02:58;19.80;47.90
74336;DHT22;62755;-33.398;-70.572;2022-12-18T09:05:29;19.80;48.00
74336;DHT22;62755;-33.398;-70.572;2022-12-18T09:07:59;19.80;48.00
74336;DHT22;62755;-33.398;-70.572;2022-12-18T09:10:29;19.70;48.10
74336;DHT22;62755;-33.398;-70.572;2022-12-18T09:12:59;19.70;48.30
74336;DHT22;62755;-33.398;-70.572;2022-12-18T09:15:28;19.70;48.40
74336;DHT22;62755;-33.398;-70.572;2022-12-18T09:17:59;19.50;48.50
74336;DHT22;62755;-33.398;-70.572;2022-12-18T09:20:29;19.50;48.60
74336;DHT22;62755;-33.398;-70.572;2022-12-18T09:22:59;19.50;48.20
74336;DHT22;62755;-33.398;-70.572;2022-12-18T09:25:30;19.50;48.00
74336;DHT22;62755;-33.398;-70.572;2022-12-18T09:28:00;19.50;48.00
74336;DHT22;62755;-33.398;-70.572;2022-12-18T09:30:30;19.50;47.80
74336;DHT22;62755;-33.398;-70.572;2022-12-18T09:33:02;19.50;47.60
74336;DHT22;62755;-33.398;-70.572;2022-12-18T09:35:32;19.60;47.50
74336;DHT22;62755;-33.398;-70.572;2022-12-18T09:38:01;19.50;47.60
74336;DHT22;62755;-33.398;-70.572;2022-12-18T09:40:41;19.50;47.60
74336;DHT22;62755;-33.398;-70.572;2022-12-18T09:43:17;19.50;47.80
74336;DHT22;62755;-33.398;-70.572;2022-12-18T09:45:49;19.40;48.00
74336;DHT22;62755;-33.398;-70.572;2022-12-18T09:48:25;19.40;47.90
74336;DHT22;62755;-33.398;-70.572;2022-12-18T09:50:58;19.50;47.80
74336;DHT22;62755;-33.398;-70.572;2022-12-18T09:53:32;19.50;47.80
74336;DHT22;62755;-33.398;-70.572;2022-12-18T09:56:05;19.40;47.90
74336;DHT22;62755;-33.398;-70.572;2022-12-18T09:58:39;19.40;47.90
74336;DHT22;62755;-33.398;-70.572;2022-12-18T10:01:12;19.40;47.90
74336;DHT22;62755;-33.398;-70.572;2022-12-18T10:03:45;19.40;47.90
74336;DHT22;62755;-33.398;-70.572;2022-12-18T10:06:19;19.50;47.90
74336;DHT22;62755;-33.398;-70.572;2022-12-18T10:08:56;19.50;47.70
74336;DHT22;62755;-33.398;-70.572;2022-12-18T10:11:39;19.70;47.70
74336;DHT22;62755;-33.398;-70.572;2022-12-18T10:14:20;19.70;47.60
74336;DHT22;62755;-33.398;-70.572;2022-12-18T10:16:59;19.80;47.50
74336;DHT22;62755;-33.398;-70.572;2022-12-18T10:19:39;19.90;47.40
74336;DHT22;62755;-33.398;-70.572;2022-12-18T10:22:28;19.90;47.30
74336;DHT22;62755;-33.398;-70.572;2022-12-18T10:25:05;19.90;47.40
74336;DHT22;62755;-33.398;-70.572;2022-12-18T10:27:39;19.90;47.20
74336;DHT22;62755;-33.398;-70.572;2022-12-18T10:30:14;19.80;47.30
74336;DHT22;62755;-33.398;-70.572;2022-12-18T10:32:44;19.90;47.70
74336;DHT22;62755;-33.398;-70.572;2022-12-18T10:35:18;19.90;47.60
74336;DHT22;62755;-33.398;-70.572;2022-12-18T10:38:02;19.70;48.10
74336;DHT22;62755;-33.398;-70.572;2022-12-18T10:40:32;19.50;48.50
74336;DHT22;62755;-33.398;-70.572;2022-12-18T10:43:12;19.50;48.40
74336;DHT22;62755;-33.398;-70.572;2022-12-18T10:45:42;19.50;48.70
74336;DHT22;62755;-33.398;-70.572;2022-12-18T10:48:22;19.50;48.60
74336;DHT22;62755;-33.398;-70.572;2022-12-18T10:50:55;19.50;49.10
74336;DHT22;62755;-33.398;-70.572;2022-12-18T10:53:25;19.30;49.00
74336;DHT22;62755;-33.398;-70.572;2022-12-18T10:55:57;19.30;49.10
74336;DHT22;62755;-33.398;-70.572;2022-12-18T10:58:29;19.10;49.60
74336;DHT22;62755;-33.398;-70.572;2022-12-18T11:01:06;18.90;49.80
74336;DHT22;62755;-33.398;-70.572;2022-12-18T11:03:38;18.80;50.40
74336;DHT22;62755;-33.398;-70.572;2022-12-18T11:06:12;18.90;50.00
74336;DHT22;62755;-33.398;-70.572;2022-12-18T11:08:42;19.00;49.60
74336;DHT22;62755;-33.398;-70.572;2022-12-18T11:11:20;19.00;49.40
74336;DHT22;62755;-33.398;-70.572;2022-12-18T11:13:58;19.10;49.50
74336;DHT22;62755;-33.398;-70.572;2022-12-18T11:16:29;19.10;49.30
74336;DHT22;62755;-33.398;-70.572;2022-12-18T11:19:14;19.20;48.90
74336;DHT22;62755;-33.398;-70.572;2022-12-18T11:21:46;19.30;48.80
74336;DHT22;62755;-33.398;-70.572;2022-12-18T11:24:25;19.40;48.50
74336;DHT22;62755;-33.398;-70.572;2022-12-18T11:26:58;19.50;48.40
74336;DHT22;62755;-33.398;-70.572;2022-12-18T11:29:39;19.50;48.30
74336;DHT22;62755;-33.398;-70.572;2022-12-18T11:35:16;19.90;47.70
74336;DHT22;62755;-33.398;-70.572;2022-12-18T11:37:53;20.00;47.10
74336;DHT22;62755;-33.398;-70.572;2022-12-18T11:40:30;20.00;46.90
74336;DHT22;62755;-33.398;-70.572;2022-12-18T11:43:06;20.10;46.90
74336;DHT22;62755;-33.398;-70.572;2022-12-18T11:45:43;20.10;47.10
74336;DHT22;62755;-33.398;-70.572;2022-12-18T11:48:18;20.20;46.50
74336;DHT22;62755;-33.398;-70.572;2022-12-18T11:50:52;20.30;46.60
74336;DHT22;62755;-33.398;-70.572;2022-12-18T11:53:25;20.30;46.60
74336;DHT22;62755;-33.398;-70.572;2022-12-18T11:56:05;20.30;46.60
74336;DHT22;62755;-33.398;-70.572;2022-12-18T11:58:46;20.30;46.60
74336;DHT22;62755;-33.398;-70.572;2022-12-18T12:01:27;20.30;46.70
74336;DHT22;62755;-33.398;-70.572;2022-12-18T12:04:20;20.40;46.60
74336;DHT22;62755;-33.398;-70.572;2022-12-18T12:07:01;20.50;46.40
74336;DHT22;62755;-33.398;-70.572;2022-12-18T12:09:40;20.50;46.70
74336;DHT22;62755;-33.398;-70.572;2022-12-18T12:12:24;20.50;47.30
74336;DHT22;62755;-33.398;-70.572;2022-12-18T12:15:02;20.50;47.30
74336;DHT22;62755;-33.398;-70.572;2022-12-18T12:17:38;20.40;47.50
74336;DHT22;62755;-33.398;-70.572;2022-12-18T12:20:15;20.50;47.50
74336;DHT22;62755;-33.398;-70.572;2022-12-18T12:22:57;20.50;47.60
74336;DHT22;62755;-33.398;-70.572;2022-12-18T12:25:36;20.70;47.10
74336;DHT22;62755;-33.398;-70.572;2022-12-18T12:28:16;20.70;47.20
74336;DHT22;62755;-33.398;-70.572;2022-12-18T12:30:58;20.70;47.00
74336;DHT22;62755;-33.398;-70.572;2022-12-18T12:33:39;20.60;47.20
74336;DHT22;62755;-33.398;-70.572;2022-12-18T12:36:17;20.70;47.10
74336;DHT22;62755;-33.398;-70.572;2022-12-18T12:38:53;20.80;46.70
74336;DHT22;62755;-33.398;-70.572;2022-12-18T12:41:28;20.90;46.40
74336;DHT22;62755;-33.398;-70.572;2022-12-18T12:44:19;20.90;46.50
74336;DHT22;62755;-33.398;-70.572;2022-12-18T12:46:50;21.00;46.50
74336;DHT22;62755;-33.398;-70.572;2022-12-18T12:49:22;21.10;46.40
74336;DHT22;62755;-33.398;-70.572;2022-12-18T12:52:00;21.10;46.10
74336;DHT22;62755;-33.398;-70.572;2022-12-18T12:54:33;21.10;45.90
74336;DHT22;62755;-33.398;-70.572;2022-12-18T12:57:09;21.30;45.80
74336;DHT22;62755;-33.398;-70.572;2022-12-18T12:59:49;21.40;45.50
74336;DHT22;62755;-33.398;-70.572;2022-12-18T13:02:24;21.40;45.20
74336;DHT22;62755;-33.398;-70.572;2022-12-18T13:05:00;21.50;45.20
74336;DHT22;62755;-33.398;-70.572;2022-12-18T13:07:35;21.50;45.10
74336;DHT22;62755;-33.398;-70.572;2022-12-18T13:10:33;21.50;45.10
74336;DHT22;62755;-33.398;-70.572;2022-12-18T13:13:06;21.60;44.80
74336;DHT22;62755;-33.398;-70.572;2022-12-18T13:15:39;21.50;45.20
74336;DHT22;62755;-33.398;-70.572;2022-12-18T13:18:18;21.50;45.10
74336;DHT22;62755;-33.398;-70.572;2022-12-18T13:20:51;21.60;45.20
74336;DHT22;62755;-33.398;-70.572;2022-12-18T13:23:33;21.70;45.00
74336;DHT22;62755;-33.398;-70.572;2022-12-18T13:26:32;21.70;44.90
74336;DHT22;62755;-33.398;-70.572;2022-12-18T13:29:05;21.80;44.70
74336;DHT22;62755;-33.398;-70.572;2022-12-18T13:31:58;21.90;44.50
74336;DHT22;62755;-33.398;-70.572;2022-12-18T13:34:29;21.90;44.00
74336;DHT22;62755;-33.398;-70.572;2022-12-18T13:37:42;21.90;44.20
74336;DHT22;62755;-33.398;-70.572;2022-12-18T13:43:37;22.00;43.50
74336;DHT22;62755;-33.398;-70.572;2022-12-18T13:46:25;22.10;43.90
74336;DHT22;62755;-33.398;-70.572;2022-12-18T13:49:02;22.10;43.70
74336;DHT22;62755;-33.398;-70.572;2022-12-18T13:51:33;22.10;43.70
74336;DHT22;62755;-33.398;-70.572;2022-12-18T13:54:12;22.10;43.90
74336;DHT22;62755;-33.398;-70.572;2022-12-18T13:56:45;22.20;43.70
74336;DHT22;62755;-33.398;-70.572;2022-12-18T13:59:19;22.30;43.60
74336;DHT22;62755;-33.398;-70.572;2022-12-18T14:01:53;22.30;43.40
74336;DHT22;62755;-33.398;-70.572;2022-12-18T14:04:25;22.40;43.10
74336;DHT22;62755;-33.398;-70.572;2022-12-18T14:06:58;22.40;43.20
74336;DHT22;62755;-33.398;-70.572;2022-12-18T14:09:34;22.40;43.10
74336;DHT22;62755;-33.398;-70.572;2022-12-18T14:12:06;22.50;43.20
74336;DHT22;62755;-33.398;-70.572;2022-12-18T14:14:53;22.50;43.20
74336;DHT22;62755;-33.398;-70.572;2022-12-18T14:17:25;22.50;43.20
74336;DHT22;62755;-33.398;-70.572;2022-12-18T14:19:55;22.60;43.10
74336;DHT22;62755;-33.398;-70.572;2022-12-18T14:22:26;22.60;43.30
74336;DHT22;62755;-33.398;-70.572;2022-12-18T14:25:17;22.70;43.00
74336;DHT22;62755;-33.398;-70.572;2022-12-18T14:27:49;22.80;42.40
74336;DHT22;62755;-33.398;-70.572;2022-12-18T14:30:29;22.80;42.50
74336;DHT22;62755;-33.398;-70.572;2022-12-18T14:33:05;22.90;42.20
74336;DHT22;62755;-33.398;-70.572;2022-12-18T14:35:37;22.90;42.20
74336;DHT22;62755;-33.398;-70.572;2022-12-18T14:38:22;22.90;42.40
74336;DHT22;62755;-33.398;-70.572;2022-12-18T14:40:58;23.00;42.20
74336;DHT22;62755;-33.398;-70.572;2022-12-18T14:43:28;23.00;42.10
74336;DHT22;62755;-33.398;-70.572;2022-12-18T14:45:59;23.10;41.60
74336;DHT22;62755;-33.398;-70.572;2022-12-18T14:48:39;23.20;41.50
74336;DHT22;62755;-33.398;-70.572;2022-12-18T14:51:17;23.20;41.40
74336;DHT22;62755;-33.398;-70.572;2022-12-18T14:53:51;23.30;41.50
74336;DHT22;62755;-33.398;-70.572;2022-12-18T14:56:23;23.30;41.20
74336;DHT22;62755;-33.398;-70.572;2022-12-18T14:58:55;23.40;40.90
74336;DHT22;62755;-33.398;-70.572;2022-12-18T15:01:29;23.30;40.70
74336;DHT22;62755;-33.398;-70.572;2022-12-18T15:04:02;23.30;40.60
74336;DHT22;62755;-33.398;-70.572;2022-12-18T15:06:34;23.30;40.70
74336;DHT22;62755;-33.398;-70.572;2022-12-18T15:09:06;23.40;40.60
74336;DHT22;62755;-33.398;-70.572;2022-12-18T15:11:54;23.50;40.80
74336;DHT22;62755;-33.398;-70.572;2022-12-18T15:14:32;23.60;40.50
74336;DHT22;62755;-33.398;-70.572;2022-12-18T15:17:04;23.70;40.00
74336;DHT22;62755;-33.398;-70.572;2022-12-18T15:19:39;23.80;39.80
74336;DHT22;62755;-33.398;-70.572;2022-12-18T15:22:27;23.80;39.40
74336;DHT22;62755;-33.398;-70.572;2022-12-18T15:24:58;23.80;39.30
74336;DHT22;62755;-33.398;-70.572;2022-12-18T15:27:32;23.80;39.80
74336;DHT22;62755;-33.398;-70.572;2022-12-18T15:30:20;23.80;39.70
74336;DHT22;62755;-33.398;-70.572;2022-12-18T15:32:50;24.00;39.10